Huvudsida
METAR-TAF:

METAR-TAF

Flygplatser :

Kempegowdas internationella flygplats

Bangalore, Indien

latitud: 13-11-56N, longitud: 077-42-20E, höjd: 915 m

Aktuellt väderrapport

Denna rapport gjordes för 15 minuter sedan, klockan 07:00 UTC
Vind 10 kt från sydost
Temperatur 34°C
Fuktighet 20%
Tryck 1013 hPa
Sikt 10 km eller mer
Inga moln under 1 500 m eller inga cumulonimbus

METAR: VOBL 240700Z 14010KT CAVOK 34/08 Q1013 NOSIG

Tid: 12:45 (07:15 UTC)

Väderprognos

Denna rapport gjordes för 2 timmar och 15 minuter sedan, klockan 05:00 UTC
Prognos gäller från 24 kl. 06 UTC till 25 kl. 12 UTC
Vind 5 kt från syd
Sikt: 6000 m
Spridda moln på en höjd av 1500 ft

TAF: VOBL 240500Z 2406/2512 18005KT 6000 SCT015

Aktuella väderrapporter och prognoser från 4000 flygplatser (METAR- och TAF-rapporter).

De tillgängliga stationerna syns som gula och röda prickar på kartan.

För musen över prickarna för att se namnen på stationerna.

Klicka sedan för att få väderrapporter och prognoser.

För att ändra kartan: Klicka på de gröna knapparna med ett svart kors på för att zooma in; den gröna knappen med ett streck på för att zooma ut; eller på de gröna pilarna för angränsande kartor.


METAR-TAF: